Time;durP1;ratioP1;P1;durP2;ratioP2;P2;SDS_P1;SDS_P2;PMS_P1;PMS_P2;Temp;Humidity;BMP_temperature;BMP_pressure;BME280_temperature;BME280_humidity;BME280_pressure;Samples;Min_cycle;Max_cycle;Signal;HPM_P1;HPM_P2
2021/04/12 00:01:43;;;;;;;4.30;1.70;;;;;;;;;;5018652;28;20037;-58
2021/04/12 00:04:13;;;;;;;5.40;1.50;;;;;;;;;;5015480;28;20033;-61
2021/04/12 00:06:41;;;;;;;8.30;1.70;;;;;;;;;;5019495;28;20044;-54
2021/04/12 00:09:07;;;;;;;;;;;;;;;;;;5015147;28;20057;-51
2021/04/12 00:11:36;;;;;;;2.58;1.08;;;;;;;;;;5018992;28;19952;-54
2021/04/12 00:14:06;;;;;;;4.05;1.23;;;;;;;;;;5016672;28;20046;-52
2021/04/12 00:16:36;;;;;;;4.07;1.50;;;;;;;;;;5019326;28;20069;-55
2021/04/12 00:19:07;;;;;;;5.15;1.33;;;;;;;;;;5016660;28;20052;-53
2021/04/12 00:21:40;;;;;;;3.95;1.25;;;;;;;;;;5019890;28;20037;-52
2021/04/12 00:24:11;;;;;;;4.38;1.30;;;;;;;;;;5015174;28;20108;-51
2021/04/12 00:26:40;;;;;;;4.75;1.27;;;;;;;;;;5022213;28;20056;-53
2021/04/12 00:29:11;;;;;;;3.70;1.20;;;;;;;;;;5019800;28;20041;-54
2021/04/12 00:31:39;;;;;;;8.45;1.20;;;;;;;;;;5039836;28;20037;-51
2021/04/12 00:34:10;;;;;;;2.63;1.27;;;;;;;;;;5025011;28;20127;-54
2021/04/12 00:36:39;;;;;;;4.45;1.40;;;;;;;;;;5019255;28;20366;-52
2021/04/12 00:39:07;;;;;;;4.18;1.23;;;;;;;;;;5017311;28;20044;-51
2021/04/12 00:41:49;;;;;;;3.08;1.13;;;;;;;;;;5038790;28;20056;-49
2021/04/12 00:44:21;;;;;;;4.85;1.50;;;;;;;;;;5039263;28;20037;-53
2021/04/12 00:46:54;;;;;;;5.10;1.35;;;;;;;;;;5039699;28;20045;-54
2021/04/12 00:49:35;;;;;;;8.27;2.10;;;;;;;;;;5039810;28;20049;-50
2021/04/12 00:52:07;;;;;;;5.10;2.00;;;;;;;;;;5020655;28;20030;-49
2021/04/12 00:54:49;;;;;;;4.43;2.03;;;;;;;;;;5019351;28;20119;-55
2021/04/12 00:57:22;;;;;;;5.97;2.10;;;;;;;;;;5009520;28;20048;-52
2021/04/12 00:59:53;;;;;;;8.27;2.40;;;;;;;;;;5035153;28;20030;-55
2021/04/12 01:02:32;;;;;;;6.70;1.90;;;;;;;;;;5039731;28;20065;-56
2021/04/12 01:05:07;;;;;;;4.20;1.48;;;;;;;;;;5028286;28;20044;-50
2021/04/12 01:07:52;;;;;;;4.90;1.45;;;;;;;;;;5036082;28;20066;-54
2021/04/12 01:10:38;;;;;;;4.35;1.40;;;;;;;;;;5018395;28;20127;-53
2021/04/12 01:13:23;;;;;;;3.72;1.20;;;;;;;;;;5039375;28;20078;-52
2021/04/12 01:16:01;;;;;;;3.42;1.20;;;;;;;;;;5036528;28;20057;-52
2021/04/12 01:18:35;;;;;;;6.10;1.30;;;;;;;;;;5038314;28;20053;-55
2021/04/12 01:21:17;;;;;;;3.20;1.30;;;;;;;;;;5033330;28;20030;-55
2021/04/12 01:23:58;;;;;;;5.10;1.33;;;;;;;;;;5021724;28;20049;-51
2021/04/12 01:26:43;;;;;;;4.43;1.48;;;;;;;;;;5015231;28;20048;-54
2021/04/12 01:29:24;;;;;;;3.55;1.50;;;;;;;;;;5023628;28;20053;-53
2021/04/12 01:32:05;;;;;;;2.92;1.10;;;;;;;;;;5010302;28;20030;-58
2021/04/12 01:34:46;;;;;;;4.97;1.55;;;;;;;;;;5039479;28;20115;-53
2021/04/12 01:37:22;;;;;;;4.70;1.17;;;;;;;;;;5026468;28;20140;-53
2021/04/12 01:39:53;;;;;;;4.22;1.40;;;;;;;;;;5041863;28;20053;-55
2021/04/12 01:42:27;;;;;;;4.30;1.40;;;;;;;;;;5032636;28;20468;-50
2021/04/12 01:44:59;;;;;;;3.15;1.42;;;;;;;;;;5026095;28;20056;-57
2021/04/12 01:47:43;;;;;;;7.68;1.70;;;;;;;;;;5039671;28;20041;-54
2021/04/12 01:50:18;;;;;;;3.28;1.20;;;;;;;;;;5043197;28;20048;-57
2021/04/12 01:53:02;;;;;;;3.88;1.35;;;;;;;;;;5038938;28;20033;-55
2021/04/12 01:55:44;;;;;;;3.97;1.55;;;;;;;;;;5031752;28;20049;-56
2021/04/12 01:58:40;;;;;;;3.17;1.58;;;;;;;;;;5029916;28;20105;-51
2021/04/12 02:01:24;;;;;;;3.78;1.60;;;;;;;;;;4978676;28;20043;-52
2021/04/12 02:03:59;;;;;;;3.70;1.23;;;;;;;;;;5015933;28;20049;-56
2021/04/12 02:06:38;;;;;;;2.88;1.30;;;;;;;;;;5020959;28;20053;-49
2021/04/12 02:09:14;;;;;;;3.92;1.48;;;;;;;;;;5020068;28;20030;-50
2021/04/12 02:11:44;;;;;;;3.58;1.30;;;;;;;;;;5022917;28;20050;-50
2021/04/12 02:14:14;;;;;;;3.28;1.33;;;;;;;;;;5031649;28;20126;-55
2021/04/12 02:16:43;;;;;;;7.03;1.50;;;;;;;;;;5041331;28;20119;-52
2021/04/12 02:19:33;;;;;;;4.20;1.38;;;;;;;;;;5030087;28;20045;-48
2021/04/12 02:22:10;;;;;;;5.30;1.40;;;;;;;;;;5000774;28;20022;-56
2021/04/12 02:24:39;;;;;;;4.40;1.65;;;;;;;;;;5020050;28;20096;-52
2021/04/12 02:27:09;;;;;;;3.50;1.52;;;;;;;;;;5026468;28;20045;-55
2021/04/12 02:29:56;;;;;;;5.72;1.52;;;;;;;;;;5033365;28;20045;-51
2021/04/12 02:32:54;;;;;;;4.82;1.52;;;;;;;;;;5042377;28;20049;-55
2021/04/12 02:35:31;;;;;;;3.58;1.38;;;;;;;;;;5036097;28;20046;-57
2021/04/12 02:38:07;;;;;;;3.25;1.40;;;;;;;;;;5042985;28;20037;-52
2021/04/12 02:40:51;;;;;;;2.20;0.95;;;;;;;;;;5023260;28;20069;-55
2021/04/12 02:43:22;;;;;;;3.30;1.33;;;;;;;;;;5020700;28;20030;-56
2021/04/12 02:46:03;;;;;;;2.53;1.10;;;;;;;;;;5019025;28;20070;-53
2021/04/12 02:48:38;;;;;;;2.53;1.23;;;;;;;;;;5018058;28;20030;-51
2021/04/12 02:51:11;;;;;;;6.40;1.40;;;;;;;;;;5019754;28;20120;-50
2021/04/12 02:53:58;;;;;;;10.15;1.40;;;;;;;;;;5024313;28;20038;-52
2021/04/12 02:56:32;;;;;;;3.53;1.35;;;;;;;;;;5015270;28;20066;-54
2021/04/12 02:59:05;;;;;;;4.35;1.50;;;;;;;;;;5022444;28;20052;-52
2021/04/12 03:01:40;;;;;;;2.38;1.05;;;;;;;;;;5018498;28;20045;-50
2021/04/12 03:04:13;;;;;;;3.22;1.25;;;;;;;;;;5022267;28;20070;-49
2021/04/12 03:06:57;;;;;;;6.35;1.48;;;;;;;;;;5020160;28;20049;-55
2021/04/12 03:09:31;;;;;;;4.22;1.45;;;;;;;;;;5011853;28;20038;-48
2021/04/12 03:12:01;;;;;;;2.90;1.30;;;;;;;;;;5017450;28;20052;-50
2021/04/12 03:14:48;;;;;;;3.60;1.50;;;;;;;;;;5021827;28;20038;-53
2021/04/12 03:17:21;;;;;;;2.88;1.15;;;;;;;;;;5018915;28;20046;-56
2021/04/12 03:20:02;;;;;;;3.10;1.23;;;;;;;;;;5019323;28;20045;-50
2021/04/12 03:22:35;;;;;;;8.55;1.30;;;;;;;;;;4965247;28;21971;-49
2021/04/12 03:25:14;;;;;;;2.65;1.23;;;;;;;;;;5023340;28;20040;-52
2021/04/12 03:27:52;;;;;;;5.80;1.40;;;;;;;;;;5019401;28;20037;-51
2021/04/12 03:30:24;;;;;;;2.90;1.20;;;;;;;;;;5021466;28;20041;-51
2021/04/12 03:33:04;;;;;;;2.00;1.08;;;;;;;;;;5018777;28;20042;-51
2021/04/12 03:35:37;;;;;;;4.80;1.40;;;;;;;;;;5040464;28;20037;-50
2021/04/12 03:38:21;;;;;;;5.25;1.23;;;;;;;;;;5036979;28;20091;-49
2021/04/12 03:40:59;;;;;;;2.42;1.30;;;;;;;;;;5041924;28;20033;-51
2021/04/12 03:43:33;;;;;;;4.00;1.20;;;;;;;;;;5021320;28;20057;-48
2021/04/12 03:46:14;;;;;;;4.93;1.38;;;;;;;;;;5022439;28;20030;-54
2021/04/12 03:48:47;;;;;;;4.82;1.40;;;;;;;;;;5005142;28;20034;-52
2021/04/12 03:51:36;;;;;;;4.72;1.60;;;;;;;;;;5039534;28;20044;-53
2021/04/12 03:54:21;;;;;;;4.80;1.30;;;;;;;;;;4988283;28;20082;-53
2021/04/12 03:56:57;;;;;;;3.35;1.38;;;;;;;;;;5040492;28;20071;-57
2021/04/12 03:59:33;;;;;;;2.40;1.20;;;;;;;;;;5021575;28;20050;-51
2021/04/12 04:02:20;;;;;;;1.70;1.17;;;;;;;;;;5018282;28;20056;-57
2021/04/12 04:04:53;;;;;;;5.15;1.60;;;;;;;;;;4981235;28;20039;-53
2021/04/12 04:07:29;;;;;;;3.63;1.30;;;;;;;;;;4978940;28;20125;-53
2021/04/12 04:10:02;;;;;;;5.70;1.40;;;;;;;;;;4982465;28;20432;-55
2021/04/12 04:12:46;;;;;;;3.95;1.23;;;;;;;;;;4979610;28;20034;-54
2021/04/12 04:15:24;;;;;;;3.15;1.38;;;;;;;;;;5001062;28;20048;-57
2021/04/12 04:18:05;;;;;;;3.85;1.30;;;;;;;;;;4996198;28;20058;-57
2021/04/12 04:20:39;;;;;;;3.53;1.00;;;;;;;;;;4979538;28;20054;-56
2021/04/12 04:23:11;;;;;;;1.50;0.82;;;;;;;;;;4997675;28;20050;-56
2021/04/12 04:25:56;;;;;;;1.38;0.90;;;;;;;;;;5000229;28;20555;-52
2021/04/12 04:28:36;;;;;;;2.25;1.00;;;;;;;;;;4995102;28;20050;-56
2021/04/12 04:31:26;;;;;;;3.28;1.20;;;;;;;;;;4987754;28;20157;-56
2021/04/12 04:34:01;;;;;;;3.85;1.20;;;;;;;;;;4995939;28;20030;-53
2021/04/12 04:36:31;;;;;;;2.05;1.10;;;;;;;;;;5001172;28;20038;-50
2021/04/12 04:39:15;;;;;;;2.60;1.00;;;;;;;;;;4995150;28;20044;-54
2021/04/12 04:41:56;;;;;;;2.75;1.10;;;;;;;;;;5001185;28;20168;-51
2021/04/12 04:44:48;;;;;;;3.15;1.20;;;;;;;;;;4971263;28;20066;-51
2021/04/12 04:47:28;;;;;;;3.70;1.05;;;;;;;;;;4978420;28;20059;-54
2021/04/12 04:50:22;;;;;;;3.85;1.20;;;;;;;;;;4947823;28;20050;-51
2021/04/12 04:52:58;;;;;;;4.57;1.23;;;;;;;;;;4958969;28;20041;-51
2021/04/12 04:55:34;;;;;;;3.42;1.17;;;;;;;;;;4992763;28;20043;-53
2021/04/12 04:58:15;;;;;;;1.85;1.10;;;;;;;;;;4981694;28;20046;-51
2021/04/12 05:00:50;;;;;;;3.85;1.10;;;;;;;;;;4975466;28;20106;-50
2021/04/12 05:03:32;;;;;;;2.45;1.27;;;;;;;;;;5001376;28;20045;-49
2021/04/12 05:06:11;;;;;;;2.85;0.93;;;;;;;;;;5018930;28;20046;-52
2021/04/12 05:09:00;;;;;;;1.88;1.17;;;;;;;;;;5018109;28;20061;-54
2021/04/12 05:11:52;;;;;;;5.57;1.95;;;;;;;;;;5017915;28;20053;-51
2021/04/12 05:14:42;;;;;;;6.97;1.80;;;;;;;;;;5023782;28;20053;-57
2021/04/12 05:17:23;;;;;;;5.25;1.67;;;;;;;;;;5025848;28;20101;-56
2021/04/12 05:19:54;;;;;;;4.10;1.50;;;;;;;;;;5000274;28;20029;-57
2021/04/12 05:22:50;;;;;;;4.68;1.27;;;;;;;;;;5026980;28;20052;-57
2021/04/12 05:25:24;;;;;;;3.90;1.15;;;;;;;;;;5025703;28;20038;-59
2021/04/12 05:28:11;;;;;;;1.63;0.93;;;;;;;;;;5027151;28;20056;-58
2021/04/12 05:31:00;;;;;;;4.47;1.27;;;;;;;;;;5019065;28;20098;-61
2021/04/12 05:33:40;;;;;;;2.97;1.08;;;;;;;;;;5028731;28;20107;-61
2021/04/12 05:36:24;;;;;;;3.08;1.27;;;;;;;;;;5020655;28;20049;-57
2021/04/12 05:39:10;;;;;;;2.70;1.17;;;;;;;;;;5028154;28;20049;-58
2021/04/12 05:41:52;;;;;;;2.95;1.30;;;;;;;;;;5029664;28;20093;-59
2021/04/12 05:44:33;;;;;;;4.20;1.50;;;;;;;;;;5031938;28;20129;-57
2021/04/12 05:47:08;;;;;;;3.05;1.52;;;;;;;;;;5025645;28;20049;-61
2021/04/12 05:49:38;;;;;;;5.40;1.42;;;;;;;;;;5038202;28;20049;-60
2021/04/12 05:52:16;;;;;;;4.75;1.42;;;;;;;;;;5023878;28;20057;-58
2021/04/12 05:54:51;;;;;;;4.90;1.60;;;;;;;;;;5036171;28;20447;-58
2021/04/12 05:57:29;;;;;;;2.92;1.42;;;;;;;;;;5024586;28;20116;-57
2021/04/12 06:00:09;;;;;;;3.75;1.27;;;;;;;;;;5036418;28;20041;-56
2021/04/12 06:02:42;;;;;;;3.83;1.38;;;;;;;;;;5018368;28;20042;-54
2021/04/12 06:05:15;;;;;;;3.13;1.50;;;;;;;;;;5038060;28;20065;-58
2021/04/12 06:08:04;;;;;;;10.95;4.13;;;;;;;;;;5025441;28;20054;-56
2021/04/12 06:10:36;;;;;;;9.05;3.67;;;;;;;;;;5042450;28;20041;-51
2021/04/12 06:13:20;;;;;;;12.15;1.90;;;;;;;;;;5031075;28;20073;-50
2021/04/12 06:15:51;;;;;;;2.95;1.50;;;;;;;;;;5022674;28;20040;-53
2021/04/12 06:18:32;;;;;;;2.33;1.05;;;;;;;;;;5022083;28;20104;-51
2021/04/12 06:21:13;;;;;;;1.52;0.98;;;;;;;;;;4982299;28;20056;-51
2021/04/12 06:23:53;;;;;;;4.03;1.00;;;;;;;;;;5028134;28;20076;-55
2021/04/12 06:26:37;;;;;;;2.92;1.10;;;;;;;;;;5025952;28;20038;-54
2021/04/12 06:29:15;;;;;;;1.75;0.80;;;;;;;;;;5033615;28;20041;-60
2021/04/12 06:31:42;;;;;;;;;;;;;;;;;;5045923;28;20037;-56
2021/04/12 06:34:26;;;;;;;2.03;0.80;;;;;;;;;;5031484;28;19921;-56
2021/04/12 06:36:58;;;;;;;4.45;1.17;;;;;;;;;;5025444;28;20041;-61
2021/04/12 06:39:48;;;;;;;3.95;1.00;;;;;;;;;;5033348;28;20033;-59
2021/04/12 06:42:36;;;;;;;2.97;1.40;;;;;;;;;;5044871;28;20041;-61
2021/04/12 06:45:20;;;;;;;2.40;0.90;;;;;;;;;;5011580;28;20030;-55
2021/04/12 06:48:10;;;;;;;4.25;1.00;;;;;;;;;;5023171;28;20321;-57
2021/04/12 06:50:57;;;;;;;2.22;1.00;;;;;;;;;;5021501;28;20053;-56
2021/04/12 06:53:44;;;;;;;2.17;1.23;;;;;;;;;;5025473;28;20042;-53
2021/04/12 06:56:37;;;;;;;2.42;0.80;;;;;;;;;;5024395;28;20038;-52
2021/04/12 06:59:21;;;;;;;2.25;0.93;;;;;;;;;;5022074;28;20078;-53
2021/04/12 07:02:01;;;;;;;3.75;1.02;;;;;;;;;;5044572;28;20041;-51
2021/04/12 07:04:43;;;;;;;1.63;0.90;;;;;;;;;;5027757;28;20079;-50
2021/04/12 07:07:29;;;;;;;2.90;0.90;;;;;;;;;;5026514;28;20033;-50
2021/04/12 07:10:10;;;;;;;3.33;1.00;;;;;;;;;;5013192;28;20037;-54
2021/04/12 07:12:52;;;;;;;5.75;1.10;;;;;;;;;;5006089;28;20046;-51
2021/04/12 07:15:31;;;;;;;4.90;1.00;;;;;;;;;;5004777;28;20049;-51
2021/04/12 07:18:14;;;;;;;4.93;1.10;;;;;;;;;;5009146;28;20049;-49
2021/04/12 07:21:01;;;;;;;2.58;1.20;;;;;;;;;;4994393;28;20160;-51
2021/04/12 07:23:57;;;;;;;3.08;0.80;;;;;;;;;;5004960;28;20160;-50
2021/04/12 07:26:32;;;;;;;1.73;1.15;;;;;;;;;;5033348;28;20068;-55
2021/04/12 07:29:25;;;;;;;2.65;0.85;;;;;;;;;;5045865;28;20041;-48
2021/04/12 07:32:08;;;;;;;4.80;1.10;;;;;;;;;;4975077;28;20034;-51
2021/04/12 07:34:51;;;;;;;2.45;1.20;;;;;;;;;;5023022;28;20052;-51
2021/04/12 07:37:36;;;;;;;2.30;0.90;;;;;;;;;;5024072;28;20029;-52
2021/04/12 07:40:21;;;;;;;1.83;0.82;;;;;;;;;;5027239;28;20037;-56
2021/04/12 07:43:02;;;;;;;1.58;0.73;;;;;;;;;;5005848;28;20511;-53
2021/04/12 07:45:54;;;;;;;6.70;1.17;;;;;;;;;;5008522;28;20046;-56
2021/04/12 07:48:39;;;;;;;6.60;1.70;;;;;;;;;;4989534;28;20064;-57
2021/04/12 07:51:25;;;;;;;10.38;0.88;;;;;;;;;;5014042;28;20041;-52
2021/04/12 07:54:10;;;;;;;3.78;0.70;;;;;;;;;;4993642;28;20052;-55
2021/04/12 07:57:04;;;;;;;1.10;0.70;;;;;;;;;;5018257;28;20082;-59
2021/04/12 07:59:57;;;;;;;1.25;0.80;;;;;;;;;;5003693;28;20099;-59
2021/04/12 08:02:40;;;;;;;2.10;0.88;;;;;;;;;;5020300;28;20038;-57
2021/04/12 08:05:36;;;;;;;4.90;0.85;;;;;;;;;;5022236;28;20107;-58
2021/04/12 08:08:31;;;;;;;1.45;0.52;;;;;;;;;;5033626;28;20037;-52
2021/04/12 08:11:19;;;;;;;0.95;0.57;;;;;;;;;;5044245;28;20034;-52
2021/04/12 08:14:06;;;;;;;1.15;0.60;;;;;;;;;;5040502;28;20029;-51
2021/04/12 08:16:57;;;;;;;1.60;0.45;;;;;;;;;;5043769;28;20041;-58
2021/04/12 08:19:41;;;;;;;3.25;0.60;;;;;;;;;;5023975;28;20044;-50
2021/04/12 08:22:24;;;;;;;1.70;0.70;;;;;;;;;;5011498;28;20049;-50
2021/04/12 08:25:00;;;;;;;4.45;0.70;;;;;;;;;;5039527;28;20025;-55
2021/04/12 08:27:59;;;;;;;2.15;0.60;;;;;;;;;;5022102;28;20045;-52
2021/04/12 08:30:51;;;;;;;2.63;0.43;;;;;;;;;;5044018;28;20073;-56
2021/04/12 08:33:35;;;;;;;1.58;0.70;;;;;;;;;;5034802;28;20041;-62
2021/04/12 08:36:34;;;;;;;2.28;0.73;;;;;;;;;;5023509;28;20041;-53
2021/04/12 08:39:18;;;;;;;2.70;0.70;;;;;;;;;;5020062;28;20026;-54
2021/04/12 08:41:53;;;;;;;3.55;0.77;;;;;;;;;;5030494;28;20041;-56
2021/04/12 08:44:48;;;;;;;3.05;0.60;;;;;;;;;;5028910;28;20054;-53
2021/04/12 08:47:29;;;;;;;3.00;0.73;;;;;;;;;;4979075;28;20032;-53
2021/04/12 08:50:03;;;;;;;2.72;0.98;;;;;;;;;;4989955;28;20161;-53
2021/04/12 08:52:47;;;;;;;3.72;0.80;;;;;;;;;;5023055;28;20040;-55
2021/04/12 08:55:30;;;;;;;3.20;0.93;;;;;;;;;;5025998;28;20033;-53
2021/04/12 08:58:11;;;;;;;2.47;0.80;;;;;;;;;;5042365;28;20037;-57
2021/04/12 09:00:56;;;;;;;1.45;0.80;;;;;;;;;;5020943;28;20053;-53
2021/04/12 09:03:45;;;;;;;1.75;0.90;;;;;;;;;;5022541;28;20041;-54
2021/04/12 09:06:40;;;;;;;2.67;1.17;;;;;;;;;;5042000;28;20030;-56
2021/04/12 09:09:25;;;;;;;2.60;0.85;;;;;;;;;;5039723;28;20045;-56
2021/04/12 09:12:09;;;;;;;2.63;1.40;;;;;;;;;;5043327;28;20057;-53
2021/04/12 09:15:08;;;;;;;6.82;1.17;;;;;;;;;;5035870;28;20038;-53
2021/04/12 09:17:45;;;;;;;5.85;1.33;;;;;;;;;;4941108;28;20039;-56
2021/04/12 09:20:22;;;;;;;2.70;1.13;;;;;;;;;;4954990;28;20065;-56
2021/04/12 09:23:03;;;;;;;4.07;1.20;;;;;;;;;;4998203;28;20037;-58
2021/04/12 09:25:55;;;;;;;5.85;1.17;;;;;;;;;;5027982;28;20033;-56
2021/04/12 09:28:27;;;;;;;3.88;1.55;;;;;;;;;;5042461;28;20220;-58
2021/04/12 09:31:18;;;;;;;3.60;1.70;;;;;;;;;;5031880;28;20053;-59
2021/04/12 09:33:52;;;;;;;2.75;1.27;;;;;;;;;;5030746;28;20044;-58
2021/04/12 09:36:49;;;;;;;3.78;1.70;;;;;;;;;;5028604;28;20095;-60
2021/04/12 09:39:37;;;;;;;2.83;1.40;;;;;;;;;;5013865;28;20037;-58
2021/04/12 09:42:24;;;;;;;3.88;1.40;;;;;;;;;;5033454;28;20102;-59
2021/04/12 09:45:08;;;;;;;2.50;1.45;;;;;;;;;;5043242;28;20045;-53
2021/04/12 09:47:56;;;;;;;4.05;1.73;;;;;;;;;;5041110;28;20046;-55
2021/04/12 09:50:44;;;;;;;2.35;1.27;;;;;;;;;;5046400;28;20037;-55
2021/04/12 09:53:24;;;;;;;4.75;1.58;;;;;;;;;;5025654;28;20041;-53
2021/04/12 09:56:04;;;;;;;3.30;1.42;;;;;;;;;;5023301;28;20038;-55
2021/04/12 09:58:52;;;;;;;5.43;1.48;;;;;;;;;;5025576;28;20045;-52
2021/04/12 10:01:31;;;;;;;4.03;1.60;;;;;;;;;;5021431;28;20051;-56
2021/04/12 10:04:23;;;;;;;2.70;1.00;;;;;;;;;;5024455;28;20057;-54
2021/04/12 10:07:04;;;;;;;1.85;0.80;;;;;;;;;;5028447;28;20044;-59
2021/04/12 10:09:45;;;;;;;1.75;0.75;;;;;;;;;;5046061;28;20050;-56
2021/04/12 10:12:29;;;;;;;3.47;1.00;;;;;;;;;;5041788;28;20092;-50
2021/04/12 10:14:59;;;;;;;0.68;0.68;;;;;;;;;;5026370;28;20045;-52
2021/04/12 10:17:28;;;;;;;1.05;0.70;;;;;;;;;;5030754;28;20098;-53
2021/04/12 10:20:07;;;;;;;1.25;0.82;;;;;;;;;;5025147;28;20057;-52
2021/04/12 10:22:33;;;;;;;;;;;;;;;;;;5018310;28;20038;-53
2021/04/12 10:25:01;;;;;;;1.80;0.80;;;;;;;;;;5044945;28;19927;-55
2021/04/12 10:27:29;;;;;;;0.90;0.55;;;;;;;;;;5032763;28;20062;-55
2021/04/12 10:30:12;;;;;;;;;;;;;;;;;;;;;
2021/04/12 10:32:41;;;;;;;0.93;0.70;;;;;;;;;;5030291;28;20022;-57
2021/04/12 10:35:13;;;;;;;2.80;0.90;;;;;;;;;;5030972;28;20064;-57
2021/04/12 10:37:42;;;;;;;1.17;0.80;;;;;;;;;;5038413;28;20171;-58
2021/04/12 10:40:13;;;;;;;;;;;;;;;;;;5026319;28;20045;-57
2021/04/12 10:42:46;;;;;;;2.05;1.00;;;;;;;;;;5020814;28;19921;-57
2021/04/12 10:45:15;;;;;;;1.85;0.90;;;;;;;;;;5038360;28;20048;-61
2021/04/12 10:47:58;;;;;;;2.65;1.10;;;;;;;;;;5025335;28;20037;-61
2021/04/12 10:50:28;;;;;;;1.35;0.93;;;;;;;;;;5008021;28;20040;-56
2021/04/12 10:53:01;;;;;;;2.60;1.10;;;;;;;;;;5025201;28;20038;-57
2021/04/12 10:55:30;;;;;;;1.80;0.80;;;;;;;;;;5042534;28;20068;-61
2021/04/12 10:58:06;;;;;;;1.33;0.90;;;;;;;;;;5044854;28;20033;-52
2021/04/12 11:00:40;;;;;;;1.25;0.85;;;;;;;;;;5022167;28;20120;-60
2021/04/12 11:03:15;;;;;;;1.30;1.00;;;;;;;;;;5023973;28;20038;-58
2021/04/12 11:05:43;;;;;;;1.50;1.00;;;;;;;;;;5023256;28;20542;-61
2021/04/12 11:08:18;;;;;;;1.98;1.23;;;;;;;;;;5025004;28;20062;-56
2021/04/12 11:11:00;;;;;;;3.10;0.98;;;;;;;;;;5035968;28;20050;-63
2021/04/12 11:13:29;;;;;;;2.08;1.08;;;;;;;;;;5017878;28;20056;-61
2021/04/12 11:16:02;;;;;;;3.20;0.88;;;;;;;;;;5003150;28;20039;-59
2021/04/12 11:18:30;;;;;;;3.08;1.10;;;;;;;;;;5007750;28;20049;-58
2021/04/12 11:21:19;;;;;;;2.85;1.17;;;;;;;;;;5003388;28;20126;-56
2021/04/12 11:23:54;;;;;;;1.10;0.90;;;;;;;;;;5008319;28;20034;-54
2021/04/12 11:26:23;;;;;;;3.40;1.17;;;;;;;;;;5006893;28;20046;-57
2021/04/12 11:28:53;;;;;;;1.33;0.80;;;;;;;;;;5006672;28;20053;-55
2021/04/12 11:31:34;;;;;;;1.00;0.82;;;;;;;;;;5005117;28;20096;-57
2021/04/12 11:34:06;;;;;;;2.22;1.10;;;;;;;;;;5006181;28;20045;-53
2021/04/12 11:36:42;;;;;;;1.90;0.88;;;;;;;;;;5005216;28;20042;-61
2021/04/12 11:39:13;;;;;;;2.55;1.13;;;;;;;;;;5007476;28;20053;-61
2021/04/12 11:41:49;;;;;;;5.03;1.10;;;;;;;;;;5023198;28;20048;-58
2021/04/12 11:44:18;;;;;;;4.22;1.17;;;;;;;;;;4998212;28;20082;-58
2021/04/12 11:46:58;;;;;;;1.85;1.00;;;;;;;;;;5019961;28;20025;-53
2021/04/12 11:49:27;;;;;;;2.63;1.10;;;;;;;;;;5008121;28;20041;-56
2021/04/12 11:51:55;;;;;;;3.15;1.00;;;;;;;;;;5006336;28;20081;-52
2021/04/12 11:54:27;;;;;;;6.20;0.90;;;;;;;;;;5005629;28;20038;-58
2021/04/12 11:56:57;;;;;;;3.90;1.08;;;;;;;;;;5000231;28;20061;-54
2021/04/12 11:59:33;;;;;;;3.40;1.30;;;;;;;;;;5004947;28;20038;-60
2021/04/12 12:02:06;;;;;;;1.50;0.95;;;;;;;;;;4993923;28;20033;-57
2021/04/12 12:04:39;;;;;;;2.35;1.17;;;;;;;;;;5005303;28;20103;-62
2021/04/12 12:07:24;;;;;;;1.48;1.00;;;;;;;;;;5021247;28;20099;-59
2021/04/12 12:10:02;;;;;;;3.45;1.10;;;;;;;;;;5008605;28;20041;-57
2021/04/12 12:12:37;;;;;;;4.95;1.00;;;;;;;;;;5004693;28;20084;-56
2021/04/12 12:15:07;;;;;;;2.40;1.20;;;;;;;;;;5007891;28;20040;-55
2021/04/12 12:17:39;;;;;;;1.38;0.90;;;;;;;;;;4994238;28;20022;-59
2021/04/12 12:20:14;;;;;;;3.75;1.17;;;;;;;;;;5007234;28;20034;-59
2021/04/12 12:22:47;;;;;;;2.20;1.00;;;;;;;;;;5005309;28;20103;-58
2021/04/12 12:25:18;;;;;;;1.85;0.90;;;;;;;;;;5025387;28;20110;-59
2021/04/12 12:27:57;;;;;;;3.13;0.90;;;;;;;;;;5025805;28;20048;-59
2021/04/12 12:30:31;;;;;;;1.80;0.82;;;;;;;;;;5006757;28;20037;-59
2021/04/12 12:33:03;;;;;;;3.28;0.90;;;;;;;;;;5011749;28;20118;-57
2021/04/12 12:35:42;;;;;;;1.77;0.70;;;;;;;;;;5025174;28;20056;-57
2021/04/12 12:38:17;;;;;;;3.00;1.02;;;;;;;;;;5004282;28;20048;-58
2021/04/12 12:40:46;;;;;;;6.65;0.90;;;;;;;;;;4996103;28;20046;-58
2021/04/12 12:43:15;;;;;;;5.18;0.80;;;;;;;;;;4985012;28;20045;-60
2021/04/12 12:45:41;;;;;;;1.48;0.80;;;;;;;;;;4998092;28;20030;-57
2021/04/12 12:48:13;;;;;;;2.05;1.05;;;;;;;;;;5004235;28;20042;-56
2021/04/12 12:50:45;;;;;;;1.58;0.80;;;;;;;;;;5007665;28;20052;-56
2021/04/12 12:53:14;;;;;;;2.28;0.80;;;;;;;;;;4994071;28;20049;-61
2021/04/12 12:55:40;;;;;;;;;;;;;;;;;;5006322;28;20026;-58
2021/04/12 12:58:08;;;;;;;1.73;0.73;;;;;;;;;;5002447;28;19928;-58
2021/04/12 13:00:39;;;;;;;1.98;1.00;;;;;;;;;;5007244;28;20030;-59
2021/04/12 13:03:17;;;;;;;2.38;0.70;;;;;;;;;;5000757;28;20030;-59
2021/04/12 13:05:43;;;;;;;;;;;;;;;;;;5008827;28;20042;-54
2021/04/12 13:08:12;;;;;;;1.08;0.70;;;;;;;;;;5003011;28;19921;-55
2021/04/12 13:10:40;;;;;;;3.90;0.90;;;;;;;;;;5001501;28;20074;-61
2021/04/12 13:13:16;;;;;;;1.48;0.85;;;;;;;;;;5004282;28;20038;-59
2021/04/12 13:15:42;;;;;;;4.25;1.40;;;;;;;;;;4999296;28;20038;-58
2021/04/12 13:18:11;;;;;;;3.20;1.40;;;;;;;;;;5019852;28;20042;-59
2021/04/12 13:20:43;;;;;;;3.88;0.98;;;;;;;;;;5018281;28;20098;-58
2021/04/12 13:23:15;;;;;;;2.33;0.82;;;;;;;;;;5025905;28;20033;-57
2021/04/12 13:25:45;;;;;;;5.00;1.40;;;;;;;;;;5006969;28;20037;-59
2021/04/12 13:28:14;;;;;;;5.35;1.35;;;;;;;;;;5006068;28;20058;-58
2021/04/12 13:30:56;;;;;;;5.53;1.40;;;;;;;;;;4996812;28;20111;-57
2021/04/12 13:33:28;;;;;;;3.30;1.10;;;;;;;;;;5003559;28;20042;-57
2021/04/12 13:35:56;;;;;;;1.73;0.80;;;;;;;;;;4995418;28;20035;-56
2021/04/12 13:38:23;;;;;;;3.03;0.70;;;;;;;;;;4987256;28;20053;-57
2021/04/12 13:41:00;;;;;;;4.25;1.10;;;;;;;;;;4983741;28;20031;-54
2021/04/12 13:43:28;;;;;;;2.30;0.93;;;;;;;;;;5000565;28;20038;-59
2021/04/12 13:45:56;;;;;;;;;;;;;;;;;;4992811;28;20038;-58
2021/04/12 13:48:27;;;;;;;2.25;0.70;;;;;;;;;;5004629;28;19932;-56
2021/04/12 13:50:57;;;;;;;1.33;0.65;;;;;;;;;;4997166;28;20043;-59
2021/04/12 13:53:27;;;;;;;1.58;0.80;;;;;;;;;;5002121;28;20035;-58
2021/04/12 13:55:56;;;;;;;2.65;0.80;;;;;;;;;;4995789;28;20030;-60
2021/04/12 13:58:22;;;;;;;;;;;;;;;;;;5024976;28;20034;-60
2021/04/12 14:00:54;;;;;;;4.00;0.95;;;;;;;;;;5017251;28;19913;-59
2021/04/12 14:03:24;;;;;;;3.08;1.00;;;;;;;;;;5005955;28;20089;-59
2021/04/12 14:05:56;;;;;;;3.15;1.05;;;;;;;;;;5002218;28;20054;-57
2021/04/12 14:08:23;;;;;;;2.63;1.05;;;;;;;;;;5006123;28;20049;-59
2021/04/12 14:10:53;;;;;;;2.20;1.20;;;;;;;;;;5002358;28;20039;-57
2021/04/12 14:13:22;;;;;;;2.90;1.30;;;;;;;;;;5006666;28;20066;-59
2021/04/12 14:15:47;;;;;;;;;;;;;;;;;;5006961;28;20124;-55
2021/04/12 14:18:25;;;;;;;2.47;0.90;;;;;;;;;;5000621;28;19917;-58
2021/04/12 14:21:02;;;;;;;4.07;1.33;;;;;;;;;;5005608;28;20034;-60
2021/04/12 14:23:31;;;;;;;2.85;1.00;;;;;;;;;;5000247;28;20108;-56
2021/04/12 14:25:59;;;;;;;4.75;0.95;;;;;;;;;;5006306;28;20030;-58
2021/04/12 14:28:27;;;;;;;2.45;1.00;;;;;;;;;;4996888;28;20050;-51
2021/04/12 14:30:58;;;;;;;4.13;1.02;;;;;;;;;;4999142;28;20034;-58
2021/04/12 14:33:26;;;;;;;2.70;1.00;;;;;;;;;;5011608;28;20042;-60
2021/04/12 14:36:01;;;;;;;2.63;1.10;;;;;;;;;;5007837;28;20066;-52
2021/04/12 14:38:27;;;;;;;3.53;1.10;;;;;;;;;;5015768;28;20038;-56
2021/04/12 14:41:02;;;;;;;3.03;1.20;;;;;;;;;;5026168;28;20034;-57
2021/04/12 14:43:30;;;;;;;3.55;1.20;;;;;;;;;;5007956;28;20042;-63
2021/04/12 14:46:04;;;;;;;2.40;1.10;;;;;;;;;;5005455;28;20030;-58
2021/04/12 14:48:36;;;;;;;2.90;0.70;;;;;;;;;;5003613;28;20034;-54
2021/04/12 14:51:07;;;;;;;3.55;0.80;;;;;;;;;;5003396;28;20045;-60
2021/04/12 14:53:35;;;;;;;3.25;0.90;;;;;;;;;;4992848;28;20042;-59
2021/04/12 14:56:02;;;;;;;4.03;1.27;;;;;;;;;;5004084;28;20030;-56
2021/04/12 14:58:31;;;;;;;2.72;0.80;;;;;;;;;;4995795;28;20030;-57
2021/04/12 15:01:11;;;;;;;2.35;0.80;;;;;;;;;;5005258;28;20054;-58
2021/04/12 15:03:44;;;;;;;3.80;1.10;;;;;;;;;;5001619;28;20078;-58
2021/04/12 15:06:16;;;;;;;1.00;0.90;;;;;;;;;;5003671;28;20046;-59
2021/04/12 15:08:49;;;;;;;2.17;0.70;;;;;;;;;;5001695;28;20043;-56
2021/04/12 15:11:23;;;;;;;3.50;1.20;;;;;;;;;;4989898;28;20045;-55
2021/04/12 15:14:01;;;;;;;1.95;0.80;;;;;;;;;;4991066;28;20038;-57
2021/04/12 15:16:31;;;;;;;3.03;0.95;;;;;;;;;;5004627;28;20050;-60
2021/04/12 15:19:01;;;;;;;3.63;1.05;;;;;;;;;;4996582;28;20038;-58
2021/04/12 15:21:35;;;;;;;2.42;0.93;;;;;;;;;;4997934;28;20050;-59
2021/04/12 15:24:04;;;;;;;4.28;0.90;;;;;;;;;;5001479;28;20027;-59
2021/04/12 15:26:31;;;;;;;;;;;;;;;;;;5006133;28;20073;-61
2021/04/12 15:29:12;;;;;;;2.42;0.95;;;;;;;;;;5000762;28;19918;-61
2021/04/12 15:31:45;;;;;;;3.42;1.27;;;;;;;;;;5006688;28;20050;-58
2021/04/12 15:34:13;;;;;;;6.30;1.40;;;;;;;;;;5002041;28;20041;-59
2021/04/12 15:36:41;;;;;;;2.25;1.17;;;;;;;;;;4994864;28;20113;-58
2021/04/12 15:39:10;;;;;;;4.88;1.23;;;;;;;;;;5001100;28;20058;-60
2021/04/12 15:41:37;;;;;;;2.95;1.20;;;;;;;;;;5022953;28;20065;-57
2021/04/12 15:44:06;;;;;;;3.60;1.20;;;;;;;;;;5005360;28;20049;-57
2021/04/12 15:46:34;;;;;;;4.32;1.38;;;;;;;;;;4999181;28;20160;-57